Flight Track Log - Related Links

Times and Time Zones

All times are in EDT time to prevent confusion due to time zone crossing. See the JZA8163 flight status page for this flight to view local times or setup timezone preferences in your user account.

Time Position Orientation Groundspeed Altitude Reporting Facility
EDT Latitude Longitude Course Direction KTS MPH feet Rate Location/Type
Tue 12:51:07 AM 53.2667 -113.5833 169° South 120 138 3,600  Level Edmonton Center
Tue 12:52:07 AM 53.2333 -113.5333 138° Southeast 160 184 4,700 1,150 Climbing Edmonton Center
Tue 12:53:07 AM 53.1833 -113.5333 180° South 170 196 5,900 1,350 Climbing Edmonton Center
Tue 12:54:07 AM 53.1333 -113.5500 191° South 170 196 7,400 1,400 Climbing Edmonton Center
Tue 12:55:07 AM 53.0833 -113.5333 169° South 180 207 8,700 1,250 Climbing Edmonton Center
Tue 12:56:00 AM 53.0443 -113.8092 169° South  Level FlightAware Approximate
Tue 12:56:07 AM 53.0333 -113.5500 191° South 180 207 9,900  Level Edmonton Center
Tue 12:57:07 AM 52.9833 -113.5500 180° South 180 207 11,400 1,350 Climbing Edmonton Center
Tue 12:58:07 AM 52.9167 -113.5667 189° South 180 207 12,600 1,250 Climbing Edmonton Center
Tue 12:59:07 AM 52.8667 -113.5500 169° South 180 207 13,900 1,200 Climbing Edmonton Center
Tue 01:00:07 AM 52.8167 -113.5667 191° South 190 219 15,000 550 Climbing Edmonton Center
Tue 01:01:07 AM 52.7500 -113.5500 171° South 230 265 15,000  Level Edmonton Center
Tue 01:02:07 AM 52.6833 -113.5667 189° South 240 276 15,000  Level Edmonton Center
Tue 01:03:07 AM 52.6167 -113.5833 189° South 260 299 15,000  Level Edmonton Center
Tue 01:04:07 AM 52.5500 -113.5667 171° South 260 299 15,000  Level Edmonton Center
Tue 01:05:07 AM 52.4667 -113.5833 187° South 260 299 15,000  Level Edmonton Center
Tue 01:06:07 AM 52.4000 -113.6000 189° South 260 299 15,000  Level Edmonton Center
Tue 01:07:07 AM 52.3333 -113.5833 171° South 260 299 15,000  Level Edmonton Center
Tue 01:08:07 AM 52.2500 -113.5833 180° South 260 299 15,000  Level Edmonton Center
Tue 01:09:07 AM 52.1667 -113.6000 187° South 260 299 15,000  Level Edmonton Center
Tue 01:10:07 AM 52.1000 -113.5833 171° South 260 299 15,000  Level Edmonton Center
Tue 01:11:07 AM 52.0333 -113.6000 189° South 260 299 15,000  Level Edmonton Center
Tue 01:12:07 AM 51.9500 -113.6167 187° South 260 299 15,000 -100 Level Edmonton Center
Tue 01:13:07 AM 51.8833 -113.6000 171° South 260 299 14,800 -650 Descending Edmonton Center
Tue 01:14:07 AM 51.8167 -113.6167 189° South 280 322 13,700 -1,150 Descending Edmonton Center
Tue 01:15:07 AM 51.7333 -113.6500 194° South 290 334 12,500 -1,100 Descending Edmonton Center
Tue 01:16:07 AM 51.6500 -113.6833 194° South 280 322 11,500 -1,000 Descending Edmonton Center
Tue 01:17:07 AM 51.5833 -113.7500 212° Southwest 280 322 10,500 -950 Descending Edmonton Center
Tue 01:18:07 AM 51.5167 -113.8000 205° Southwest 270 311 9,600 -950 Descending Edmonton Center
Tue 01:19:07 AM 51.4333 -113.8667 207° Southwest 270 311 8,600 -800 Descending Edmonton Center
Tue 01:20:07 AM 51.3667 -113.9000 197° South 270 311 8,000 -700 Descending Edmonton Center
Tue 01:21:07 AM 51.3167 -113.9500 212° Southwest 220 253 7,200 -850 Descending Edmonton Center
Tue 01:22:07 AM 51.2667 -113.9833 203° Southwest 220 253 6,300 -850 Descending Edmonton Center
Tue 01:23:07 AM 51.2000 -114.0000 189° South 210 242 5,500 -750 Descending Edmonton Center
Tue 01:24:07 AM 51.1667 -114.0500 223° Southwest 170 196 4,800 -700 Descending Edmonton Center
Tue 01:25:07 AM 51.1333 -114.0500 180° South 110 127 4,100 -650 Descending Edmonton Center
Tue 01:26:07 AM 51.1000 -114.0333 163° South 120 138 3,500 -600 Descending Edmonton Center

Login

Don't have an account? Register now (free) for customized features, flight alerts, and more!